sensor_id;sensor_type;location;lat;lon;timestamp;pressure;altitude;pressure_sealevel;temperature;humidity
71966;BME280;59836;52.132;5.442;2023-04-03T00:02:22;103141.00;;;4.59;68.65
71966;BME280;59836;52.132;5.442;2023-04-03T00:04:49;103150.75;;;4.60;68.80
71966;BME280;59836;52.132;5.442;2023-04-03T00:07:15;103152.25;;;4.54;68.90
71966;BME280;59836;52.132;5.442;2023-04-03T00:09:42;103150.44;;;4.55;69.34
71966;BME280;59836;52.132;5.442;2023-04-03T00:12:08;103157.81;;;4.53;69.01
71966;BME280;59836;52.132;5.442;2023-04-03T00:14:34;103159.16;;;4.49;69.74
71966;BME280;59836;52.132;5.442;2023-04-03T00:17:01;103148.56;;;4.47;69.39
71966;BME280;59836;52.132;5.442;2023-04-03T00:19:27;103155.47;;;4.50;69.36
71966;BME280;59836;52.132;5.442;2023-04-03T00:21:54;103163.88;;;4.47;69.03
71966;BME280;59836;52.132;5.442;2023-04-03T00:24:20;103159.00;;;4.42;69.33
71966;BME280;59836;52.132;5.442;2023-04-03T00:26:47;103156.31;;;4.42;69.58
71966;BME280;59836;52.132;5.442;2023-04-03T00:29:13;103154.63;;;4.41;69.82
71966;BME280;59836;52.132;5.442;2023-04-03T00:31:40;103160.88;;;4.41;69.81
71966;BME280;59836;52.132;5.442;2023-04-03T00:34:06;103148.09;;;4.43;69.32
71966;BME280;59836;52.132;5.442;2023-04-03T00:36:32;103153.63;;;4.42;69.95
71966;BME280;59836;52.132;5.442;2023-04-03T00:39:00;103155.84;;;4.38;69.55
71966;BME280;59836;52.132;5.442;2023-04-03T00:41:27;103162.88;;;4.39;69.42
71966;BME280;59836;52.132;5.442;2023-04-03T00:43:54;103167.06;;;4.34;69.88
71966;BME280;59836;52.132;5.442;2023-04-03T00:46:20;103162.38;;;4.27;70.31
71966;BME280;59836;52.132;5.442;2023-04-03T00:48:48;103170.63;;;4.26;70.30
71966;BME280;59836;52.132;5.442;2023-04-03T00:51:23;103171.63;;;4.25;70.04
71966;BME280;59836;52.132;5.442;2023-04-03T00:54:01;103169.59;;;4.27;71.13
71966;BME280;59836;52.132;5.442;2023-04-03T00:56:29;103168.75;;;4.26;70.67
71966;BME280;59836;52.132;5.442;2023-04-03T00:59:00;103171.28;;;4.20;70.76
71966;BME280;59836;52.132;5.442;2023-04-03T01:01:28;103172.81;;;4.14;71.10
71966;BME280;59836;52.132;5.442;2023-04-03T01:03:56;103181.22;;;4.11;71.43
71966;BME280;59836;52.132;5.442;2023-04-03T01:06:28;103178.00;;;4.16;70.88
71966;BME280;59836;52.132;5.442;2023-04-03T01:08:55;103183.38;;;4.16;70.85
71966;BME280;59836;52.132;5.442;2023-04-03T01:11:22;103176.66;;;4.11;71.57
71966;BME280;59836;52.132;5.442;2023-04-03T01:13:48;103177.84;;;4.09;71.60
71966;BME280;59836;52.132;5.442;2023-04-03T01:16:15;103171.97;;;4.05;71.98
71966;BME280;59836;52.132;5.442;2023-04-03T01:18:42;103177.34;;;4.05;71.99
71966;BME280;59836;52.132;5.442;2023-04-03T01:21:27;103185.56;;;4.04;71.93
71966;BME280;59836;52.132;5.442;2023-04-03T01:24:07;103186.06;;;3.99;71.90
71966;BME280;59836;52.132;5.442;2023-04-03T01:26:37;103181.88;;;3.96;72.07
71966;BME280;59836;52.132;5.442;2023-04-03T01:29:04;103184.03;;;3.93;72.29
71966;BME280;59836;52.132;5.442;2023-04-03T01:31:49;103182.34;;;3.92;72.17
71966;BME280;59836;52.132;5.442;2023-04-03T01:34:16;103172.81;;;3.89;72.37
71966;BME280;59836;52.132;5.442;2023-04-03T01:36:42;103178.31;;;3.88;72.60
71966;BME280;59836;52.132;5.442;2023-04-03T01:39:10;103172.81;;;3.89;72.42
71966;BME280;59836;52.132;5.442;2023-04-03T01:41:36;103179.19;;;3.88;72.59
71966;BME280;59836;52.132;5.442;2023-04-03T01:44:03;103174.16;;;3.85;72.98
71966;BME280;59836;52.132;5.442;2023-04-03T01:46:30;103179.66;;;3.83;73.39
71966;BME280;59836;52.132;5.442;2023-04-03T01:48:57;103169.78;;;3.84;73.16
71966;BME280;59836;52.132;5.442;2023-04-03T01:51:23;103175.47;;;3.81;73.14
71966;BME280;59836;52.132;5.442;2023-04-03T01:53:49;103176.63;;;3.78;73.33
71966;BME280;59836;52.132;5.442;2023-04-03T01:56:17;103173.94;;;3.78;73.41
71966;BME280;59836;52.132;5.442;2023-04-03T01:58:44;103174.47;;;3.74;73.08
71966;BME280;59836;52.132;5.442;2023-04-03T02:01:10;103168.59;;;3.70;73.72
71966;BME280;59836;52.132;5.442;2023-04-03T02:03:37;103177.66;;;3.69;73.68
71966;BME280;59836;52.132;5.442;2023-04-03T02:06:03;103175.81;;;3.69;73.96
71966;BME280;59836;52.132;5.442;2023-04-03T02:08:29;103185.03;;;3.67;74.20
71966;BME280;59836;52.132;5.442;2023-04-03T02:10:56;103183.03;;;3.69;73.32
71966;BME280;59836;52.132;5.442;2023-04-03T02:13:22;103190.41;;;3.67;73.81
71966;BME280;59836;52.132;5.442;2023-04-03T02:15:49;103190.41;;;3.67;73.89
71966;BME280;59836;52.132;5.442;2023-04-03T02:18:16;103197.09;;;3.63;74.39
71966;BME280;59836;52.132;5.442;2023-04-03T02:20:42;103200.13;;;3.60;74.12
71966;BME280;59836;52.132;5.442;2023-04-03T02:23:09;103193.06;;;3.59;74.21
71966;BME280;59836;52.132;5.442;2023-04-03T02:25:36;103194.72;;;3.51;74.74
71966;BME280;59836;52.132;5.442;2023-04-03T02:28:04;103193.38;;;3.47;74.69
71966;BME280;59836;52.132;5.442;2023-04-03T02:30:31;103189.34;;;3.43;74.91
71966;BME280;59836;52.132;5.442;2023-04-03T02:32:57;103198.03;;;3.37;75.04
71966;BME280;59836;52.132;5.442;2023-04-03T02:35:24;103185.94;;;3.33;75.75
71966;BME280;59836;52.132;5.442;2023-04-03T02:37:50;103192.00;;;3.35;75.40
71966;BME280;59836;52.132;5.442;2023-04-03T02:40:17;103191.31;;;3.33;75.89
71966;BME280;59836;52.132;5.442;2023-04-03T02:42:43;103191.13;;;3.34;75.63
71966;BME280;59836;52.132;5.442;2023-04-03T02:45:10;103196.34;;;3.36;75.82
71966;BME280;59836;52.132;5.442;2023-04-03T02:47:36;103196.50;;;3.34;75.60
71966;BME280;59836;52.132;5.442;2023-04-03T02:50:03;103200.34;;;3.32;75.89
71966;BME280;59836;52.132;5.442;2023-04-03T02:52:29;103207.03;;;3.28;75.96
71966;BME280;59836;52.132;5.442;2023-04-03T02:54:56;103209.38;;;3.22;76.32
71966;BME280;59836;52.132;5.442;2023-04-03T02:57:22;103211.06;;;3.23;76.13
71966;BME280;59836;52.132;5.442;2023-04-03T02:59:49;103215.41;;;3.24;76.47
71966;BME280;59836;52.132;5.442;2023-04-03T03:02:15;103213.38;;;3.18;76.32
71966;BME280;59836;52.132;5.442;2023-04-03T03:04:41;103219.06;;;3.15;76.78
71966;BME280;59836;52.132;5.442;2023-04-03T03:07:08;103219.03;;;3.07;76.96
71966;BME280;59836;52.132;5.442;2023-04-03T03:09:35;103230.22;;;3.02;77.34
71966;BME280;59836;52.132;5.442;2023-04-03T03:12:02;103232.06;;;3.02;77.47
71966;BME280;59836;52.132;5.442;2023-04-03T03:14:28;103227.19;;;2.97;77.49
71966;BME280;59836;52.132;5.442;2023-04-03T03:16:55;103228.00;;;2.98;78.00
71966;BME280;59836;52.132;5.442;2023-04-03T03:19:21;103232.56;;;2.97;78.04
71966;BME280;59836;52.132;5.442;2023-04-03T03:21:48;103232.00;;;2.93;78.03
71966;BME280;59836;52.132;5.442;2023-04-03T03:24:14;103228.34;;;2.94;78.17
71966;BME280;59836;52.132;5.442;2023-04-03T03:26:42;103233.19;;;2.91;78.30
71966;BME280;59836;52.132;5.442;2023-04-03T03:29:09;103231.34;;;2.91;78.92
71966;BME280;59836;52.132;5.442;2023-04-03T03:31:35;103237.00;;;2.88;78.52
71966;BME280;59836;52.132;5.442;2023-04-03T03:34:02;103226.59;;;2.85;78.81
71966;BME280;59836;52.132;5.442;2023-04-03T03:36:28;103231.59;;;2.80;78.90
71966;BME280;59836;52.132;5.442;2023-04-03T03:38:55;103239.50;;;2.82;78.90
71966;BME280;59836;52.132;5.442;2023-04-03T03:41:21;103238.63;;;2.81;79.07
71966;BME280;59836;52.132;5.442;2023-04-03T03:43:47;103238.63;;;2.81;79.34
71966;BME280;59836;52.132;5.442;2023-04-03T03:46:14;103229.09;;;2.78;79.15
71966;BME280;59836;52.132;5.442;2023-04-03T03:48:40;103233.75;;;2.76;79.07
71966;BME280;59836;52.132;5.442;2023-04-03T03:51:07;103242.94;;;2.74;78.97
71966;BME280;59836;52.132;5.442;2023-04-03T03:53:33;103239.75;;;2.70;79.53
71966;BME280;59836;52.132;5.442;2023-04-03T03:56:00;103238.22;;;2.68;79.50
71966;BME280;59836;52.132;5.442;2023-04-03T03:58:27;103242.75;;;2.67;79.58
71966;BME280;59836;52.132;5.442;2023-04-03T04:00:53;103245.91;;;2.62;79.75
71966;BME280;59836;52.132;5.442;2023-04-03T04:03:20;103246.91;;;2.61;79.50
71966;BME280;59836;52.132;5.442;2023-04-03T04:05:47;103242.53;;;2.60;79.86
71966;BME280;59836;52.132;5.442;2023-04-03T04:08:13;103248.91;;;2.59;79.75
71966;BME280;59836;52.132;5.442;2023-04-03T04:10:40;103244.53;;;2.58;79.64
71966;BME280;59836;52.132;5.442;2023-04-03T04:13:06;103243.00;;;2.56;80.22
71966;BME280;59836;52.132;5.442;2023-04-03T04:15:33;103247.53;;;2.55;80.13
71966;BME280;59836;52.132;5.442;2023-04-03T04:18:00;103258.69;;;2.50;80.01
71966;BME280;59836;52.132;5.442;2023-04-03T04:20:27;103259.84;;;2.48;80.29
71966;BME280;59836;52.132;5.442;2023-04-03T04:22:53;103257.19;;;2.48;80.51
71966;BME280;59836;52.132;5.442;2023-04-03T04:25:20;103265.22;;;2.48;80.39
71966;BME280;59836;52.132;5.442;2023-04-03T04:27:46;103258.19;;;2.47;80.40
71966;BME280;59836;52.132;5.442;2023-04-03T04:30:13;103253.66;;;2.47;80.34
71966;BME280;59836;52.132;5.442;2023-04-03T04:32:39;103264.91;;;2.51;80.70
71966;BME280;59836;52.132;5.442;2023-04-03T04:35:07;103267.22;;;2.46;80.53
71966;BME280;59836;52.132;5.442;2023-04-03T04:37:33;103260.84;;;2.47;80.55
71966;BME280;59836;52.132;5.442;2023-04-03T04:40:00;103264.53;;;2.46;80.61
71966;BME280;59836;52.132;5.442;2023-04-03T04:42:26;103261.53;;;2.49;80.64
71966;BME280;59836;52.132;5.442;2023-04-03T04:44:53;103270.56;;;2.48;81.00
71966;BME280;59836;52.132;5.442;2023-04-03T04:47:19;103272.41;;;2.47;80.73
71966;BME280;59836;52.132;5.442;2023-04-03T04:49:46;103273.69;;;2.43;81.03
71966;BME280;59836;52.132;5.442;2023-04-03T04:52:14;103274.88;;;2.41;80.85
71966;BME280;59836;52.132;5.442;2023-04-03T04:54:40;103273.88;;;2.42;80.95
71966;BME280;59836;52.132;5.442;2023-04-03T04:57:07;103276.53;;;2.42;81.09
71966;BME280;59836;52.132;5.442;2023-04-03T04:59:33;103273.88;;;2.42;81.10
71966;BME280;59836;52.132;5.442;2023-04-03T05:02:00;103266.44;;;2.35;80.86
71966;BME280;59836;52.132;5.442;2023-04-03T05:04:27;103270.94;;;2.35;81.17
71966;BME280;59836;52.132;5.442;2023-04-03T05:06:53;103271.13;;;2.33;80.90
71966;BME280;59836;52.132;5.442;2023-04-03T05:09:19;103273.78;;;2.33;81.23
71966;BME280;59836;52.132;5.442;2023-04-03T05:11:46;103279.75;;;2.27;81.23
71966;BME280;59836;52.132;5.442;2023-04-03T05:14:13;103286.19;;;2.34;81.17
71966;BME280;59836;52.132;5.442;2023-04-03T05:16:39;103279.66;;;2.37;81.02
71966;BME280;59836;52.132;5.442;2023-04-03T05:19:05;103275.69;;;2.41;81.05
71966;BME280;59836;52.132;5.442;2023-04-03T05:21:32;103284.88;;;2.39;81.14
71966;BME280;59836;52.132;5.442;2023-04-03T05:24:00;103281.59;;;2.45;81.10
71966;BME280;59836;52.132;5.442;2023-04-03T05:26:29;103288.31;;;2.49;80.62
71966;BME280;59836;52.132;5.442;2023-04-03T05:28:56;103293.31;;;2.44;80.41
71966;BME280;59836;52.132;5.442;2023-04-03T05:31:22;103292.31;;;2.45;80.17
71966;BME280;59836;52.132;5.442;2023-04-03T05:33:49;103302.41;;;2.51;80.42
71966;BME280;59836;52.132;5.442;2023-04-03T05:36:16;103298.44;;;2.55;80.00
71966;BME280;59836;52.132;5.442;2023-04-03T05:38:42;103289.31;;;2.48;79.96
71966;BME280;59836;52.132;5.442;2023-04-03T05:41:09;103293.00;;;2.47;80.04
71966;BME280;59836;52.132;5.442;2023-04-03T05:43:35;103298.72;;;2.52;80.77
71966;BME280;59836;52.132;5.442;2023-04-03T05:46:08;103300.41;;;2.53;80.25
71966;BME280;59836;52.132;5.442;2023-04-03T05:48:34;103299.25;;;2.56;80.07
71966;BME280;59836;52.132;5.442;2023-04-03T05:51:01;103304.31;;;2.59;79.68
71966;BME280;59836;52.132;5.442;2023-04-03T05:53:29;103310.91;;;2.64;79.93
71966;BME280;59836;52.132;5.442;2023-04-03T05:55:57;103320.28;;;2.69;79.81
71966;BME280;59836;52.132;5.442;2023-04-03T05:58:24;103304.19;;;2.69;79.62
71966;BME280;59836;52.132;5.442;2023-04-03T06:00:50;103316.59;;;2.70;79.77
71966;BME280;59836;52.132;5.442;2023-04-03T06:03:16;103319.66;;;2.75;79.65
71966;BME280;59836;52.132;5.442;2023-04-03T06:05:43;103321.03;;;2.79;79.28
71966;BME280;59836;52.132;5.442;2023-04-03T06:08:10;103320.72;;;2.82;79.49
71966;BME280;59836;52.132;5.442;2023-04-03T06:10:36;103324.41;;;2.81;79.56
71966;BME280;59836;52.132;5.442;2023-04-03T06:13:15;103324.94;;;2.85;79.33
71966;BME280;59836;52.132;5.442;2023-04-03T06:15:50;103335.66;;;2.85;79.08
71966;BME280;59836;52.132;5.442;2023-04-03T06:18:19;103325.81;;;2.93;79.21
71966;BME280;59836;52.132;5.442;2023-04-03T06:20:45;103328.88;;;2.99;79.23
71966;BME280;59836;52.132;5.442;2023-04-03T06:23:12;103323.91;;;3.04;78.56
71966;BME280;59836;52.132;5.442;2023-04-03T06:25:46;103327.81;;;3.09;78.46
71966;BME280;59836;52.132;5.442;2023-04-03T06:28:32;103326.63;;;3.12;78.66
71966;BME280;59836;52.132;5.442;2023-04-03T06:30:59;103331.38;;;3.18;78.07
71966;BME280;59836;52.132;5.442;2023-04-03T06:33:30;103328.69;;;3.18;78.14
71966;BME280;59836;52.132;5.442;2023-04-03T06:36:05;103331.06;;;3.21;77.96
71966;BME280;59836;52.132;5.442;2023-04-03T06:38:33;103337.78;;;3.25;77.95
71966;BME280;59836;52.132;5.442;2023-04-03T06:40:59;103336.16;;;3.33;77.55
71966;BME280;59836;52.132;5.442;2023-04-03T06:43:26;103342.72;;;3.38;77.50
71966;BME280;59836;52.132;5.442;2023-04-03T06:45:52;103340.72;;;3.40;77.53
71966;BME280;59836;52.132;5.442;2023-04-03T06:48:19;103344.59;;;3.46;77.51
71966;BME280;59836;52.132;5.442;2023-04-03T06:50:45;103338.75;;;3.51;77.27
71966;BME280;59836;52.132;5.442;2023-04-03T06:53:12;103342.78;;;3.55;76.71
71966;BME280;59836;52.132;5.442;2023-04-03T06:55:38;103357.75;;;3.58;76.74
71966;BME280;59836;52.132;5.442;2023-04-03T06:58:06;103356.75;;;3.59;76.22
71966;BME280;59836;52.132;5.442;2023-04-03T07:00:33;103360.78;;;3.63;76.25
71966;BME280;59836;52.132;5.442;2023-04-03T07:02:59;103354.63;;;3.71;76.43
71966;BME280;59836;52.132;5.442;2023-04-03T07:05:26;103366.22;;;3.79;76.21
71966;BME280;59836;52.132;5.442;2023-04-03T07:07:52;103364.75;;;3.85;75.84
71966;BME280;59836;52.132;5.442;2023-04-03T07:10:19;103365.25;;;3.89;75.17
71966;BME280;59836;52.132;5.442;2023-04-03T07:12:46;103375.97;;;3.89;75.45
71966;BME280;59836;52.132;5.442;2023-04-03T07:15:13;103366.59;;;3.93;74.92
71966;BME280;59836;52.132;5.442;2023-04-03T07:17:40;103375.00;;;3.98;74.56
71966;BME280;59836;52.132;5.442;2023-04-03T07:20:07;103372.34;;;4.06;74.82
71966;BME280;59836;52.132;5.442;2023-04-03T07:22:34;103367.88;;;4.15;74.05
71966;BME280;59836;52.132;5.442;2023-04-03T07:25:01;103374.28;;;4.22;74.03
71966;BME280;59836;52.132;5.442;2023-04-03T07:27:27;103377.47;;;4.26;73.77
71966;BME280;59836;52.132;5.442;2023-04-03T07:29:53;103380.16;;;4.34;73.18
71966;BME280;59836;52.132;5.442;2023-04-03T07:32:22;103383.53;;;4.36;72.81
71966;BME280;59836;52.132;5.442;2023-04-03T07:34:48;103379.66;;;4.47;72.88
71966;BME280;59836;52.132;5.442;2023-04-03T07:37:16;103379.22;;;4.60;72.77
71966;BME280;59836;52.132;5.442;2023-04-03T07:39:44;103379.88;;;4.70;71.96
71966;BME280;59836;52.132;5.442;2023-04-03T07:42:11;103387.78;;;4.80;71.64
71966;BME280;59836;52.132;5.442;2023-04-03T07:44:39;103381.41;;;4.90;70.82
71966;BME280;59836;52.132;5.442;2023-04-03T07:47:06;103388.13;;;5.02;70.48
71966;BME280;59836;52.132;5.442;2023-04-03T07:49:32;103391.63;;;5.11;69.95
71966;BME280;59836;52.132;5.442;2023-04-03T07:52:00;103394.66;;;5.16;69.36
71966;BME280;59836;52.132;5.442;2023-04-03T07:54:27;103401.56;;;5.27;69.12
71966;BME280;59836;52.132;5.442;2023-04-03T07:56:53;103391.25;;;5.39;68.86
71966;BME280;59836;52.132;5.442;2023-04-03T07:59:20;103398.31;;;5.48;67.74
71966;BME280;59836;52.132;5.442;2023-04-03T08:01:46;103394.41;;;5.59;67.54
71966;BME280;59836;52.132;5.442;2023-04-03T08:04:13;103387.81;;;5.70;66.86
71966;BME280;59836;52.132;5.442;2023-04-03T08:06:39;103391.50;;;5.77;66.07
71966;BME280;59836;52.132;5.442;2023-04-03T08:09:13;103381.34;;;5.87;65.74
71966;BME280;59836;52.132;5.442;2023-04-03T08:11:41;103385.53;;;5.98;65.56
71966;BME280;59836;52.132;5.442;2023-04-03T08:14:07;103386.81;;;6.19;65.21
71966;BME280;59836;52.132;5.442;2023-04-03T08:16:34;103390.53;;;6.41;64.70
71966;BME280;59836;52.132;5.442;2023-04-03T08:19:00;103398.69;;;6.56;63.82
71966;BME280;59836;52.132;5.442;2023-04-03T08:21:27;103399.13;;;6.68;63.35
71966;BME280;59836;52.132;5.442;2023-04-03T08:23:54;103392.28;;;6.81;62.52
71966;BME280;59836;52.132;5.442;2023-04-03T08:26:21;103392.13;;;6.97;61.34
71966;BME280;59836;52.132;5.442;2023-04-03T08:28:48;103396.94;;;7.10;61.32
71966;BME280;59836;52.132;5.442;2023-04-03T08:31:17;103391.38;;;7.27;61.85
71966;BME280;59836;52.132;5.442;2023-04-03T08:33:46;103399.47;;;7.42;60.87
71966;BME280;59836;52.132;5.442;2023-04-03T08:36:22;103406.19;;;7.46;58.81
71966;BME280;59836;52.132;5.442;2023-04-03T08:38:50;103407.22;;;7.45;57.20
71966;BME280;59836;52.132;5.442;2023-04-03T08:41:27;103406.28;;;7.52;57.10
71966;BME280;59836;52.132;5.442;2023-04-03T08:44:24;103415.13;;;7.61;57.00
71966;BME280;59836;52.132;5.442;2023-04-03T08:49:55;103404.53;;;7.75;55.31
71966;BME280;59836;52.132;5.442;2023-04-03T08:52:51;103404.53;;;7.75;55.08
71966;BME280;59836;52.132;5.442;2023-04-03T08:55:27;103406.75;;;7.86;53.75
71966;BME280;59836;52.132;5.442;2023-04-03T08:58:06;103404.34;;;7.91;52.57
71966;BME280;59836;52.132;5.442;2023-04-03T09:00:56;103416.81;;;7.92;51.12
71966;BME280;59836;52.132;5.442;2023-04-03T09:03:24;103410.63;;;7.98;49.37
71966;BME280;59836;52.132;5.442;2023-04-03T09:05:58;103405.78;;;8.09;49.12
71966;BME280;59836;52.132;5.442;2023-04-03T09:08:30;103400.38;;;8.09;49.10
71966;BME280;59836;52.132;5.442;2023-04-03T09:11:20;103395.91;;;8.01;49.96
71966;BME280;59836;52.132;5.442;2023-04-03T09:14:00;103409.59;;;8.00;48.49
71966;BME280;59836;52.132;5.442;2023-04-03T09:16:49;103399.53;;;8.08;48.06
71966;BME280;59836;52.132;5.442;2023-04-03T09:19:36;103395.16;;;8.07;47.19
71966;BME280;59836;52.132;5.442;2023-04-03T09:22:19;103397.78;;;8.01;46.53
71966;BME280;59836;52.132;5.442;2023-04-03T09:24:59;103405.78;;;8.09;46.33
71966;BME280;59836;52.132;5.442;2023-04-03T09:27:26;103403.88;;;8.24;45.97
71966;BME280;59836;52.132;5.442;2023-04-03T09:29:55;103404.34;;;8.28;45.16
71966;BME280;59836;52.132;5.442;2023-04-03T09:32:32;103406.47;;;8.33;44.18
71966;BME280;59836;52.132;5.442;2023-04-03T09:35:03;103395.66;;;8.33;43.85
71966;BME280;59836;52.132;5.442;2023-04-03T09:37:48;103394.63;;;8.34;42.38
71966;BME280;59836;52.132;5.442;2023-04-03T09:40:38;103393.06;;;8.24;42.37
71966;BME280;59836;52.132;5.442;2023-04-03T09:43:28;103399.31;;;8.25;42.30
71966;BME280;59836;52.132;5.442;2023-04-03T09:46:15;103390.19;;;8.26;41.39
71966;BME280;59836;52.132;5.442;2023-04-03T09:48:57;103382.41;;;8.38;42.36
71966;BME280;59836;52.132;5.442;2023-04-03T09:51:35;103379.13;;;8.42;41.08
71966;BME280;59836;52.132;5.442;2023-04-03T09:54:25;103380.81;;;8.44;41.87
71966;BME280;59836;52.132;5.442;2023-04-03T09:56:54;103381.25;;;8.47;40.34
71966;BME280;59836;52.132;5.442;2023-04-03T09:59:22;103380.13;;;8.56;41.44
71966;BME280;59836;52.132;5.442;2023-04-03T10:01:58;103370.47;;;8.69;41.49
71966;BME280;59836;52.132;5.442;2023-04-03T10:04:25;103363.81;;;8.71;41.78
71966;BME280;59836;52.132;5.442;2023-04-03T10:06:54;103354.34;;;8.82;40.85
71966;BME280;59836;52.132;5.442;2023-04-03T10:09:26;103355.38;;;8.81;41.10
71966;BME280;59836;52.132;5.442;2023-04-03T10:12:03;103351.13;;;8.94;41.89
71966;BME280;59836;52.132;5.442;2023-04-03T10:14:35;103355.97;;;9.05;41.05
71966;BME280;59836;52.132;5.442;2023-04-03T10:28:45;103336.81;;;9.00;38.04
71966;BME280;59836;52.132;5.442;2023-04-03T10:31:42;103342.22;;;9.00;39.18
71966;BME280;59836;52.132;5.442;2023-04-03T10:34:25;103325.38;;;9.05;38.74
71966;BME280;59836;52.132;5.442;2023-04-03T10:37:24;103328.50;;;9.08;39.65
71966;BME280;59836;52.132;5.442;2023-04-03T10:40:02;103316.53;;;9.24;39.51
71966;BME280;59836;52.132;5.442;2023-04-03T10:42:46;103322.13;;;9.23;39.32
71966;BME280;59836;52.132;5.442;2023-04-03T10:45:29;103321.09;;;9.24;39.60
71966;BME280;59836;52.132;5.442;2023-04-03T10:48:16;103306.97;;;9.28;38.29
71966;BME280;59836;52.132;5.442;2023-04-03T10:50:58;103304.94;;;9.37;38.96
71966;BME280;59836;52.132;5.442;2023-04-03T10:53:40;103306.19;;;9.41;37.81
71966;BME280;59836;52.132;5.442;2023-04-03T10:56:30;103311.22;;;9.44;37.80
71966;BME280;59836;52.132;5.442;2023-04-03T11:01:35;103295.84;;;9.58;37.77
71966;BME280;59836;52.132;5.442;2023-04-03T11:04:05;103300.88;;;9.62;37.89
71966;BME280;59836;52.132;5.442;2023-04-03T11:06:57;103295.50;;;9.68;38.76
71966;BME280;59836;52.132;5.442;2023-04-03T11:09:28;103301.53;;;9.70;38.07
71966;BME280;59836;52.132;5.442;2023-04-03T11:12:04;103305.47;;;9.61;37.69
71966;BME280;59836;52.132;5.442;2023-04-03T11:14:34;103292.72;;;9.55;37.27
71966;BME280;59836;52.132;5.442;2023-04-03T11:20:08;103289.84;;;9.70;38.79
71966;BME280;59836;52.132;5.442;2023-04-03T11:22:45;103290.72;;;9.70;38.06
71966;BME280;59836;52.132;5.442;2023-04-03T11:25:21;103286.75;;;9.73;38.56
71966;BME280;59836;52.132;5.442;2023-04-03T11:27:54;103284.47;;;9.77;37.85
71966;BME280;59836;52.132;5.442;2023-04-03T11:30:32;103281.75;;;9.77;38.01
71966;BME280;59836;52.132;5.442;2023-04-03T11:33:09;103279.47;;;9.80;38.45
71966;BME280;59836;52.132;5.442;2023-04-03T11:35:45;103299.91;;;9.83;38.14
71966;BME280;59836;52.132;5.442;2023-04-03T11:38:26;103273.41;;;9.78;37.63
71966;BME280;59836;52.132;5.442;2023-04-03T11:40:55;103284.06;;;9.86;38.04
71966;BME280;59836;52.132;5.442;2023-04-03T11:43:26;103282.44;;;9.92;37.64
71966;BME280;59836;52.132;5.442;2023-04-03T11:46:04;103283.06;;;9.94;38.15
71966;BME280;59836;52.132;5.442;2023-04-03T11:50:59;103289.75;;;10.12;39.07
71966;BME280;59836;52.132;5.442;2023-04-03T11:53:37;103276.59;;;10.09;37.66
71966;BME280;59836;52.132;5.442;2023-04-03T12:04:23;103263.28;;;10.21;37.61
71966;BME280;59836;52.132;5.442;2023-04-03T12:06:58;103268.91;;;10.19;36.76
71966;BME280;59836;52.132;5.442;2023-04-03T12:12:31;103249.53;;;10.36;37.77
71966;BME280;59836;52.132;5.442;2023-04-03T12:17:45;103248.50;;;10.50;37.59
71966;BME280;59836;52.132;5.442;2023-04-03T12:25:50;103228.91;;;10.55;37.02
71966;BME280;59836;52.132;5.442;2023-04-03T12:28:17;103234.09;;;10.56;36.66
71966;BME280;59836;52.132;5.442;2023-04-03T12:30:44;103233.06;;;10.57;37.44
71966;BME280;59836;52.132;5.442;2023-04-03T12:33:33;103223.88;;;10.58;37.83
71966;BME280;59836;52.132;5.442;2023-04-03T12:36:28;103215.34;;;10.55;37.65
71966;BME280;59836;52.132;5.442;2023-04-03T12:45:16;103213.03;;;10.58;37.58
71966;BME280;59836;52.132;5.442;2023-04-03T12:47:44;103201.78;;;10.55;36.95
71966;BME280;59836;52.132;5.442;2023-04-03T12:50:21;103197.97;;;10.62;37.91
71966;BME280;59836;52.132;5.442;2023-04-03T12:53:01;103199.66;;;10.63;37.42
71966;BME280;59836;52.132;5.442;2023-04-03T12:55:29;103195.91;;;10.65;36.59
71966;BME280;59836;52.132;5.442;2023-04-03T12:57:56;103190.44;;;10.78;38.05
71966;BME280;59836;52.132;5.442;2023-04-03T13:00:31;103186.66;;;10.86;37.09
71966;BME280;59836;52.132;5.442;2023-04-03T13:03:01;103180.38;;;10.92;37.57
71966;BME280;59836;52.132;5.442;2023-04-03T13:05:30;103177.03;;;10.97;37.55
71966;BME280;59836;52.132;5.442;2023-04-03T13:08:02;103181.03;;;10.87;37.37
71966;BME280;59836;52.132;5.442;2023-04-03T13:10:29;103178.31;;;10.87;37.06
71966;BME280;59836;52.132;5.442;2023-04-03T13:12:58;103178.06;;;10.89;37.01
71966;BME280;59836;52.132;5.442;2023-04-03T13:15:47;103177.50;;;10.80;37.38
71966;BME280;59836;52.132;5.442;2023-04-03T13:18:34;103168.28;;;10.81;37.85
71966;BME280;59836;52.132;5.442;2023-04-03T13:21:20;103165.59;;;10.81;37.22
71966;BME280;59836;52.132;5.442;2023-04-03T13:23:50;103159.31;;;10.87;38.37
71966;BME280;59836;52.132;5.442;2023-04-03T13:26:29;103164.06;;;10.99;37.34
71966;BME280;59836;52.132;5.442;2023-04-03T13:28:59;103161.16;;;10.93;37.02
71966;BME280;59836;52.132;5.442;2023-04-03T13:31:30;103164.06;;;10.99;37.43
71966;BME280;59836;52.132;5.442;2023-04-03T13:34:18;103154.88;;;11.00;37.24
71966;BME280;59836;52.132;5.442;2023-04-03T13:36:56;103155.06;;;10.98;37.25
71966;BME280;59836;52.132;5.442;2023-04-03T13:39:29;103153.63;;;10.96;36.68
71966;BME280;59836;52.132;5.442;2023-04-03T13:42:20;103169.09;;;10.88;36.82
71966;BME280;59836;52.132;5.442;2023-04-03T13:44:47;103164.69;;;11.01;37.40
71966;BME280;59836;52.132;5.442;2023-04-03T13:47:20;103158.63;;;10.99;37.49
71966;BME280;59836;52.132;5.442;2023-04-03T13:50:00;103157.41;;;10.95;36.90
71966;BME280;59836;52.132;5.442;2023-04-03T13:55:00;103161.13;;;11.00;36.78
71966;BME280;59836;52.132;5.442;2023-04-03T13:57:31;103171.34;;;11.05;37.40
71966;BME280;59836;52.132;5.442;2023-04-03T13:59:57;103164.44;;;11.09;37.77
71966;BME280;59836;52.132;5.442;2023-04-03T14:02:32;103157.06;;;11.16;37.93
71966;BME280;59836;52.132;5.442;2023-04-03T14:05:01;103151.88;;;11.15;36.62
71966;BME280;59836;52.132;5.442;2023-04-03T14:07:50;103157.41;;;10.95;36.99
71966;BME280;59836;52.132;5.442;2023-04-03T14:10:19;103155.72;;;10.93;36.70